sensor_id;sensor_type;location;lat;lon;timestamp;temperature;humidity
67974;DHT22;54756;51.140;6.952;2023-09-12T00:01:08;25.00;99.90
67974;DHT22;54756;51.140;6.952;2023-09-12T00:03:08;25.00;99.90
67974;DHT22;54756;51.140;6.952;2023-09-12T00:05:09;24.90;99.90
67974;DHT22;54756;51.140;6.952;2023-09-12T00:07:10;24.90;99.90
67974;DHT22;54756;51.140;6.952;2023-09-12T00:09:10;24.90;99.90
67974;DHT22;54756;51.140;6.952;2023-09-12T00:11:11;24.80;99.90
67974;DHT22;54756;51.140;6.952;2023-09-12T00:13:11;24.80;99.90
67974;DHT22;54756;51.140;6.952;2023-09-12T00:15:12;24.80;99.90
67974;DHT22;54756;51.140;6.952;2023-09-12T00:17:13;24.80;99.90
67974;DHT22;54756;51.140;6.952;2023-09-12T00:19:13;24.80;99.90
67974;DHT22;54756;51.140;6.952;2023-09-12T00:21:14;24.70;99.90
67974;DHT22;54756;51.140;6.952;2023-09-12T00:23:15;24.70;99.90
67974;DHT22;54756;51.140;6.952;2023-09-12T00:25:16;24.70;99.90
67974;DHT22;54756;51.140;6.952;2023-09-12T00:27:16;24.60;99.90
67974;DHT22;54756;51.140;6.952;2023-09-12T00:29:17;24.70;99.90
67974;DHT22;54756;51.140;6.952;2023-09-12T00:31:17;24.60;99.90
67974;DHT22;54756;51.140;6.952;2023-09-12T00:33:18;24.60;99.90
67974;DHT22;54756;51.140;6.952;2023-09-12T00:35:18;24.60;99.90
67974;DHT22;54756;51.140;6.952;2023-09-12T00:37:19;24.60;99.90
67974;DHT22;54756;51.140;6.952;2023-09-12T00:39:19;24.60;99.90
67974;DHT22;54756;51.140;6.952;2023-09-12T00:41:20;24.60;99.90
67974;DHT22;54756;51.140;6.952;2023-09-12T00:43:21;24.50;99.90
67974;DHT22;54756;51.140;6.952;2023-09-12T00:45:21;24.50;99.90
67974;DHT22;54756;51.140;6.952;2023-09-12T00:47:22;24.40;99.90
67974;DHT22;54756;51.140;6.952;2023-09-12T00:49:25;24.40;99.90
67974;DHT22;54756;51.140;6.952;2023-09-12T00:51:27;24.40;99.90
67974;DHT22;54756;51.140;6.952;2023-09-12T00:53:27;24.30;99.90
67974;DHT22;54756;51.140;6.952;2023-09-12T00:55:29;24.30;99.90
67974;DHT22;54756;51.140;6.952;2023-09-12T00:57:32;24.20;99.90
67974;DHT22;54756;51.140;6.952;2023-09-12T00:59:33;24.20;99.90
67974;DHT22;54756;51.140;6.952;2023-09-12T01:01:34;24.20;99.90
67974;DHT22;54756;51.140;6.952;2023-09-12T01:03:35;24.20;99.90
67974;DHT22;54756;51.140;6.952;2023-09-12T01:05:36;24.10;99.90
67974;DHT22;54756;51.140;6.952;2023-09-12T01:07:37;24.10;99.90
67974;DHT22;54756;51.140;6.952;2023-09-12T01:09:38;24.10;99.90
67974;DHT22;54756;51.140;6.952;2023-09-12T01:11:41;24.10;99.90
67974;DHT22;54756;51.140;6.952;2023-09-12T01:13:42;24.10;99.90
67974;DHT22;54756;51.140;6.952;2023-09-12T01:15:42;24.10;99.90
67974;DHT22;54756;51.140;6.952;2023-09-12T01:17:45;24.10;99.90
67974;DHT22;54756;51.140;6.952;2023-09-12T01:19:46;24.10;99.90
67974;DHT22;54756;51.140;6.952;2023-09-12T01:27:21;24.00;99.90
67974;DHT22;54756;51.140;6.952;2023-09-12T01:29:22;24.00;99.90
67974;DHT22;54756;51.140;6.952;2023-09-12T01:31:24;23.90;99.90
67974;DHT22;54756;51.140;6.952;2023-09-12T01:33:25;24.00;99.90
67974;DHT22;54756;51.140;6.952;2023-09-12T01:35:26;24.00;99.90
67974;DHT22;54756;51.140;6.952;2023-09-12T01:37:26;23.90;99.90
67974;DHT22;54756;51.140;6.952;2023-09-12T01:39:27;23.90;99.90
67974;DHT22;54756;51.140;6.952;2023-09-12T01:41:29;23.90;99.90
67974;DHT22;54756;51.140;6.952;2023-09-12T01:43:31;23.90;99.90
67974;DHT22;54756;51.140;6.952;2023-09-12T01:45:33;23.90;99.90
67974;DHT22;54756;51.140;6.952;2023-09-12T01:47:34;23.80;99.90
67974;DHT22;54756;51.140;6.952;2023-09-12T01:49:38;23.80;99.90
67974;DHT22;54756;51.140;6.952;2023-09-12T01:51:39;23.80;99.90
67974;DHT22;54756;51.140;6.952;2023-09-12T01:53:41;23.80;99.90
67974;DHT22;54756;51.140;6.952;2023-09-12T01:55:43;23.80;99.90
67974;DHT22;54756;51.140;6.952;2023-09-12T01:57:44;23.80;99.90
67974;DHT22;54756;51.140;6.952;2023-09-12T01:59:45;23.70;99.90
67974;DHT22;54756;51.140;6.952;2023-09-12T02:01:45;23.80;99.90
67974;DHT22;54756;51.140;6.952;2023-09-12T02:03:46;23.70;99.90
67974;DHT22;54756;51.140;6.952;2023-09-12T02:05:47;23.70;99.90
67974;DHT22;54756;51.140;6.952;2023-09-12T02:07:48;23.70;99.90
67974;DHT22;54756;51.140;6.952;2023-09-12T02:09:49;23.60;99.90
67974;DHT22;54756;51.140;6.952;2023-09-12T02:11:50;23.60;99.90
67974;DHT22;54756;51.140;6.952;2023-09-12T02:13:51;23.60;99.90
67974;DHT22;54756;51.140;6.952;2023-09-12T02:15:59;23.60;99.90
67974;DHT22;54756;51.140;6.952;2023-09-12T02:17:59;23.60;99.90
67974;DHT22;54756;51.140;6.952;2023-09-12T02:20:00;23.60;99.90
67974;DHT22;54756;51.140;6.952;2023-09-12T02:22:00;23.60;99.90
67974;DHT22;54756;51.140;6.952;2023-09-12T02:24:01;23.60;99.90
67974;DHT22;54756;51.140;6.952;2023-09-12T02:26:01;23.50;99.90
67974;DHT22;54756;51.140;6.952;2023-09-12T02:28:03;23.50;99.90
67974;DHT22;54756;51.140;6.952;2023-09-12T02:30:04;23.50;99.90
67974;DHT22;54756;51.140;6.952;2023-09-12T02:32:05;23.50;99.90
67974;DHT22;54756;51.140;6.952;2023-09-12T02:34:05;23.50;99.90
67974;DHT22;54756;51.140;6.952;2023-09-12T02:36:06;23.50;99.90
67974;DHT22;54756;51.140;6.952;2023-09-12T02:38:07;23.50;99.90
67974;DHT22;54756;51.140;6.952;2023-09-12T02:40:08;23.40;99.90
67974;DHT22;54756;51.140;6.952;2023-09-12T02:42:12;23.40;99.90
67974;DHT22;54756;51.140;6.952;2023-09-12T02:44:12;23.50;99.90
67974;DHT22;54756;51.140;6.952;2023-09-12T02:46:13;23.40;99.90
67974;DHT22;54756;51.140;6.952;2023-09-12T02:48:13;23.40;99.90
67974;DHT22;54756;51.140;6.952;2023-09-12T02:50:14;23.40;99.90
67974;DHT22;54756;51.140;6.952;2023-09-12T02:52:14;23.40;99.90
67974;DHT22;54756;51.140;6.952;2023-09-12T02:54:15;23.40;99.90
67974;DHT22;54756;51.140;6.952;2023-09-12T02:56:15;23.40;99.90
67974;DHT22;54756;51.140;6.952;2023-09-12T02:58:16;23.40;99.90
67974;DHT22;54756;51.140;6.952;2023-09-12T03:00:20;23.30;99.90
67974;DHT22;54756;51.140;6.952;2023-09-12T03:02:20;23.30;99.90
67974;DHT22;54756;51.140;6.952;2023-09-12T03:04:21;23.30;99.90
67974;DHT22;54756;51.140;6.952;2023-09-12T03:06:21;23.30;99.90
67974;DHT22;54756;51.140;6.952;2023-09-12T03:08:22;23.30;99.90
67974;DHT22;54756;51.140;6.952;2023-09-12T03:10:22;23.20;99.90
67974;DHT22;54756;51.140;6.952;2023-09-12T03:12:23;23.10;99.90
67974;DHT22;54756;51.140;6.952;2023-09-12T03:14:23;23.20;99.90
67974;DHT22;54756;51.140;6.952;2023-09-12T03:16:24;23.10;99.90
67974;DHT22;54756;51.140;6.952;2023-09-12T03:18:24;23.10;99.90
67974;DHT22;54756;51.140;6.952;2023-09-12T03:20:25;23.10;99.90
67974;DHT22;54756;51.140;6.952;2023-09-12T03:22:25;23.10;99.90
67974;DHT22;54756;51.140;6.952;2023-09-12T03:24:26;23.10;99.90
67974;DHT22;54756;51.140;6.952;2023-09-12T03:26:29;23.10;99.90
67974;DHT22;54756;51.140;6.952;2023-09-12T03:28:30;23.10;99.90
67974;DHT22;54756;51.140;6.952;2023-09-12T03:30:34;23.10;99.90
67974;DHT22;54756;51.140;6.952;2023-09-12T03:32:35;23.10;99.90
67974;DHT22;54756;51.140;6.952;2023-09-12T03:34:36;23.00;99.90
67974;DHT22;54756;51.140;6.952;2023-09-12T03:36:36;23.10;99.90
67974;DHT22;54756;51.140;6.952;2023-09-12T03:38:37;23.10;99.90
67974;DHT22;54756;51.140;6.952;2023-09-12T03:40:37;23.10;99.90
67974;DHT22;54756;51.140;6.952;2023-09-12T03:42:38;23.10;99.90
67974;DHT22;54756;51.140;6.952;2023-09-12T03:44:38;23.10;99.90
67974;DHT22;54756;51.140;6.952;2023-09-12T03:46:39;23.10;99.90
67974;DHT22;54756;51.140;6.952;2023-09-12T03:48:39;23.00;99.90
67974;DHT22;54756;51.140;6.952;2023-09-12T03:50:40;23.10;99.90
67974;DHT22;54756;51.140;6.952;2023-09-12T03:52:40;23.00;99.90
67974;DHT22;54756;51.140;6.952;2023-09-12T03:54:41;23.00;99.90
67974;DHT22;54756;51.140;6.952;2023-09-12T03:56:41;23.00;99.90
67974;DHT22;54756;51.140;6.952;2023-09-12T03:58:42;23.00;99.90
67974;DHT22;54756;51.140;6.952;2023-09-12T04:00:43;23.00;99.90
67974;DHT22;54756;51.140;6.952;2023-09-12T04:02:44;23.00;99.90
67974;DHT22;54756;51.140;6.952;2023-09-12T04:04:44;23.00;99.90
67974;DHT22;54756;51.140;6.952;2023-09-12T04:06:45;23.00;99.90
67974;DHT22;54756;51.140;6.952;2023-09-12T04:08:45;23.00;99.90
67974;DHT22;54756;51.140;6.952;2023-09-12T04:10:46;23.00;99.90
67974;DHT22;54756;51.140;6.952;2023-09-12T04:12:47;23.00;99.90
67974;DHT22;54756;51.140;6.952;2023-09-12T04:14:49;23.00;99.90
67974;DHT22;54756;51.140;6.952;2023-09-12T04:16:51;22.90;99.90
67974;DHT22;54756;51.140;6.952;2023-09-12T04:18:51;22.90;99.90
67974;DHT22;54756;51.140;6.952;2023-09-12T04:20:52;22.90;99.90
67974;DHT22;54756;51.140;6.952;2023-09-12T04:22:53;22.90;99.90
67974;DHT22;54756;51.140;6.952;2023-09-12T04:24:53;22.90;99.90
67974;DHT22;54756;51.140;6.952;2023-09-12T04:26:54;22.90;99.90
67974;DHT22;54756;51.140;6.952;2023-09-12T04:28:54;22.80;99.90
67974;DHT22;54756;51.140;6.952;2023-09-12T04:31:02;22.90;99.90
67974;DHT22;54756;51.140;6.952;2023-09-12T04:33:03;22.80;99.90
67974;DHT22;54756;51.140;6.952;2023-09-12T04:35:04;22.80;99.90
67974;DHT22;54756;51.140;6.952;2023-09-12T04:37:05;22.80;99.90
67974;DHT22;54756;51.140;6.952;2023-09-12T04:39:05;22.80;99.90
67974;DHT22;54756;51.140;6.952;2023-09-12T04:41:06;22.80;99.90
67974;DHT22;54756;51.140;6.952;2023-09-12T04:43:06;22.80;99.90
67974;DHT22;54756;51.140;6.952;2023-09-12T04:45:08;22.80;99.90
67974;DHT22;54756;51.140;6.952;2023-09-12T04:47:09;22.80;99.90
67974;DHT22;54756;51.140;6.952;2023-09-12T04:49:12;22.80;99.90
67974;DHT22;54756;51.140;6.952;2023-09-12T04:51:13;22.70;99.90
67974;DHT22;54756;51.140;6.952;2023-09-12T04:53:13;22.70;99.90
67974;DHT22;54756;51.140;6.952;2023-09-12T04:55:14;22.70;99.90
67974;DHT22;54756;51.140;6.952;2023-09-12T04:57:14;22.70;99.90
67974;DHT22;54756;51.140;6.952;2023-09-12T04:59:15;22.80;99.90
67974;DHT22;54756;51.140;6.952;2023-09-12T05:01:16;22.80;99.90
67974;DHT22;54756;51.140;6.952;2023-09-12T05:03:17;22.80;99.90
67974;DHT22;54756;51.140;6.952;2023-09-12T05:05:17;22.80;99.90
67974;DHT22;54756;51.140;6.952;2023-09-12T05:07:18;22.80;99.90
67974;DHT22;54756;51.140;6.952;2023-09-12T05:09:19;22.80;99.90
67974;DHT22;54756;51.140;6.952;2023-09-12T05:11:21;22.80;99.90
67974;DHT22;54756;51.140;6.952;2023-09-12T05:13:22;22.80;99.90
67974;DHT22;54756;51.140;6.952;2023-09-12T05:15:22;22.80;99.90
67974;DHT22;54756;51.140;6.952;2023-09-12T05:17:23;22.80;99.90
67974;DHT22;54756;51.140;6.952;2023-09-12T05:19:24;22.80;99.90
67974;DHT22;54756;51.140;6.952;2023-09-12T05:21:26;22.80;99.90
67974;DHT22;54756;51.140;6.952;2023-09-12T05:23:26;22.80;99.90
67974;DHT22;54756;51.140;6.952;2023-09-12T05:25:27;22.80;99.90
67974;DHT22;54756;51.140;6.952;2023-09-12T05:27:28;22.80;99.90
67974;DHT22;54756;51.140;6.952;2023-09-12T05:29:28;22.80;99.90
67974;DHT22;54756;51.140;6.952;2023-09-12T05:31:29;22.80;99.90
67974;DHT22;54756;51.140;6.952;2023-09-12T05:33:29;22.80;99.90
67974;DHT22;54756;51.140;6.952;2023-09-12T05:35:30;22.80;99.90
67974;DHT22;54756;51.140;6.952;2023-09-12T05:37:31;22.80;99.90
67974;DHT22;54756;51.140;6.952;2023-09-12T05:39:31;22.80;99.90
67974;DHT22;54756;51.140;6.952;2023-09-12T05:41:32;22.80;99.90
67974;DHT22;54756;51.140;6.952;2023-09-12T05:43:32;22.80;99.90
67974;DHT22;54756;51.140;6.952;2023-09-12T05:45:33;22.80;99.90
67974;DHT22;54756;51.140;6.952;2023-09-12T05:47:34;22.70;99.90
67974;DHT22;54756;51.140;6.952;2023-09-12T05:49:34;22.70;99.90
67974;DHT22;54756;51.140;6.952;2023-09-12T05:51:35;22.80;99.90
67974;DHT22;54756;51.140;6.952;2023-09-12T05:53:35;22.80;99.90
67974;DHT22;54756;51.140;6.952;2023-09-12T05:55:36;22.80;99.90
67974;DHT22;54756;51.140;6.952;2023-09-12T05:57:36;22.80;99.90
67974;DHT22;54756;51.140;6.952;2023-09-12T05:59:38;22.80;99.90
67974;DHT22;54756;51.140;6.952;2023-09-12T06:01:39;22.80;99.90
67974;DHT22;54756;51.140;6.952;2023-09-12T06:03:41;22.90;99.90
67974;DHT22;54756;51.140;6.952;2023-09-12T06:05:41;22.80;99.90
67974;DHT22;54756;51.140;6.952;2023-09-12T06:07:42;22.90;99.90
67974;DHT22;54756;51.140;6.952;2023-09-12T06:09:42;22.90;99.90
67974;DHT22;54756;51.140;6.952;2023-09-12T06:11:43;22.90;99.90
67974;DHT22;54756;51.140;6.952;2023-09-12T06:13:43;22.90;99.90
67974;DHT22;54756;51.140;6.952;2023-09-12T06:15:44;22.90;99.90
67974;DHT22;54756;51.140;6.952;2023-09-12T06:17:44;23.00;99.90
67974;DHT22;54756;51.140;6.952;2023-09-12T06:19:46;23.00;99.90
67974;DHT22;54756;51.140;6.952;2023-09-12T06:21:47;23.00;99.90
67974;DHT22;54756;51.140;6.952;2023-09-12T06:24:00;23.00;99.90
67974;DHT22;54756;51.140;6.952;2023-09-12T06:26:07;23.00;99.90
67974;DHT22;54756;51.140;6.952;2023-09-12T06:28:09;23.00;99.90
67974;DHT22;54756;51.140;6.952;2023-09-12T06:30:10;23.10;99.90
67974;DHT22;54756;51.140;6.952;2023-09-12T06:32:11;23.10;99.90
67974;DHT22;54756;51.140;6.952;2023-09-12T06:34:11;23.10;99.90
67974;DHT22;54756;51.140;6.952;2023-09-12T06:36:12;23.20;99.90
67974;DHT22;54756;51.140;6.952;2023-09-12T06:38:12;23.20;99.90
67974;DHT22;54756;51.140;6.952;2023-09-12T06:40:13;23.20;99.90
67974;DHT22;54756;51.140;6.952;2023-09-12T06:42:13;23.30;99.90
67974;DHT22;54756;51.140;6.952;2023-09-12T06:44:14;23.30;99.90
67974;DHT22;54756;51.140;6.952;2023-09-12T06:46:15;23.30;99.90
67974;DHT22;54756;51.140;6.952;2023-09-12T06:48:18;23.30;99.90
67974;DHT22;54756;51.140;6.952;2023-09-12T06:50:18;23.30;99.90
67974;DHT22;54756;51.140;6.952;2023-09-12T06:52:19;23.40;99.90
67974;DHT22;54756;51.140;6.952;2023-09-12T06:54:19;23.40;99.90
67974;DHT22;54756;51.140;6.952;2023-09-12T06:56:20;23.40;99.90
67974;DHT22;54756;51.140;6.952;2023-09-12T06:58:21;23.50;99.90
67974;DHT22;54756;51.140;6.952;2023-09-12T07:00:22;23.50;99.90
67974;DHT22;54756;51.140;6.952;2023-09-12T07:02:22;23.50;99.90
67974;DHT22;54756;51.140;6.952;2023-09-12T07:04:23;23.60;99.90
67974;DHT22;54756;51.140;6.952;2023-09-12T07:06:24;23.60;99.90
67974;DHT22;54756;51.140;6.952;2023-09-12T07:08:25;23.60;99.90
67974;DHT22;54756;51.140;6.952;2023-09-12T07:10:26;23.60;99.90
67974;DHT22;54756;51.140;6.952;2023-09-12T07:12:26;23.60;99.90
67974;DHT22;54756;51.140;6.952;2023-09-12T07:14:29;23.60;99.90
67974;DHT22;54756;51.140;6.952;2023-09-12T07:16:32;23.60;99.90
67974;DHT22;54756;51.140;6.952;2023-09-12T07:18:32;23.60;99.90
67974;DHT22;54756;51.140;6.952;2023-09-12T07:20:36;23.60;99.90
67974;DHT22;54756;51.140;6.952;2023-09-12T07:22:37;23.60;99.90
67974;DHT22;54756;51.140;6.952;2023-09-12T07:24:38;23.70;99.90
67974;DHT22;54756;51.140;6.952;2023-09-12T07:26:39;23.70;99.90
67974;DHT22;54756;51.140;6.952;2023-09-12T07:28:39;23.70;99.90
67974;DHT22;54756;51.140;6.952;2023-09-12T07:30:40;23.70;99.90
67974;DHT22;54756;51.140;6.952;2023-09-12T07:32:40;23.70;99.90
67974;DHT22;54756;51.140;6.952;2023-09-12T07:34:41;23.80;99.90
67974;DHT22;54756;51.140;6.952;2023-09-12T07:36:45;23.70;99.90
67974;DHT22;54756;51.140;6.952;2023-09-12T07:38:46;23.80;99.90
67974;DHT22;54756;51.140;6.952;2023-09-12T07:40:47;23.80;99.90
67974;DHT22;54756;51.140;6.952;2023-09-12T07:42:48;23.80;99.90
67974;DHT22;54756;51.140;6.952;2023-09-12T07:44:48;23.80;99.90
67974;DHT22;54756;51.140;6.952;2023-09-12T07:46:49;23.80;99.90
67974;DHT22;54756;51.140;6.952;2023-09-12T07:48:49;23.80;99.90
67974;DHT22;54756;51.140;6.952;2023-09-12T07:50:50;23.70;99.90
67974;DHT22;54756;51.140;6.952;2023-09-12T07:52:51;23.80;99.90
67974;DHT22;54756;51.140;6.952;2023-09-12T07:54:52;23.80;99.90
67974;DHT22;54756;51.140;6.952;2023-09-12T07:56:57;23.80;99.90
67974;DHT22;54756;51.140;6.952;2023-09-12T07:58:58;23.80;99.90
67974;DHT22;54756;51.140;6.952;2023-09-12T08:00:58;23.80;99.90
67974;DHT22;54756;51.140;6.952;2023-09-12T08:02:59;23.80;99.90
67974;DHT22;54756;51.140;6.952;2023-09-12T08:04:59;23.80;99.90
67974;DHT22;54756;51.140;6.952;2023-09-12T08:07:00;23.90;99.90
67974;DHT22;54756;51.140;6.952;2023-09-12T08:09:01;23.90;99.90
67974;DHT22;54756;51.140;6.952;2023-09-12T08:11:01;24.00;99.90
67974;DHT22;54756;51.140;6.952;2023-09-12T08:13:02;24.00;99.90
67974;DHT22;54756;51.140;6.952;2023-09-12T08:15:03;24.00;99.90
67974;DHT22;54756;51.140;6.952;2023-09-12T08:17:04;24.00;99.90
67974;DHT22;54756;51.140;6.952;2023-09-12T08:19:04;24.00;99.90
67974;DHT22;54756;51.140;6.952;2023-09-12T08:21:05;24.00;99.90
67974;DHT22;54756;51.140;6.952;2023-09-12T08:23:05;24.10;99.90
67974;DHT22;54756;51.140;6.952;2023-09-12T08:25:06;24.20;99.90
67974;DHT22;54756;51.140;6.952;2023-09-12T08:27:07;24.20;99.90
67974;DHT22;54756;51.140;6.952;2023-09-12T08:29:09;24.20;99.90
67974;DHT22;54756;51.140;6.952;2023-09-12T08:31:10;24.20;99.90
67974;DHT22;54756;51.140;6.952;2023-09-12T08:33:10;24.20;99.90
67974;DHT22;54756;51.140;6.952;2023-09-12T08:35:11;24.30;99.90
67974;DHT22;54756;51.140;6.952;2023-09-12T08:37:15;24.30;99.90
67974;DHT22;54756;51.140;6.952;2023-09-12T08:39:17;24.30;99.90
67974;DHT22;54756;51.140;6.952;2023-09-12T08:41:18;24.40;99.90
67974;DHT22;54756;51.140;6.952;2023-09-12T08:43:20;24.40;99.90
67974;DHT22;54756;51.140;6.952;2023-09-12T08:45:20;24.40;99.90
67974;DHT22;54756;51.140;6.952;2023-09-12T08:47:23;24.40;99.90
67974;DHT22;54756;51.140;6.952;2023-09-12T08:49:25;24.40;99.90
67974;DHT22;54756;51.140;6.952;2023-09-12T08:51:26;24.40;99.90
67974;DHT22;54756;51.140;6.952;2023-09-12T08:53:27;24.40;99.90
67974;DHT22;54756;51.140;6.952;2023-09-12T08:55:28;24.40;99.90
67974;DHT22;54756;51.140;6.952;2023-09-12T08:57:31;24.40;99.90
67974;DHT22;54756;51.140;6.952;2023-09-12T08:59:33;24.50;99.90
67974;DHT22;54756;51.140;6.952;2023-09-12T09:01:35;24.50;99.90
67974;DHT22;54756;51.140;6.952;2023-09-12T09:03:36;24.50;99.90
67974;DHT22;54756;51.140;6.952;2023-09-12T09:05:40;24.60;99.90
67974;DHT22;54756;51.140;6.952;2023-09-12T09:07:43;24.60;99.90
67974;DHT22;54756;51.140;6.952;2023-09-12T09:09:45;24.60;99.90
67974;DHT22;54756;51.140;6.952;2023-09-12T09:11:46;24.60;99.90
67974;DHT22;54756;51.140;6.952;2023-09-12T09:13:46;24.60;99.90
67974;DHT22;54756;51.140;6.952;2023-09-12T09:15:48;24.60;99.90
67974;DHT22;54756;51.140;6.952;2023-09-12T09:17:49;24.60;99.90
67974;DHT22;54756;51.140;6.952;2023-09-12T09:19:51;24.60;99.90
67974;DHT22;54756;51.140;6.952;2023-09-12T09:22:05;24.70;99.90
67974;DHT22;54756;51.140;6.952;2023-09-12T09:24:12;24.70;99.90
67974;DHT22;54756;51.140;6.952;2023-09-12T09:26:13;24.80;99.90
67974;DHT22;54756;51.140;6.952;2023-09-12T09:28:18;24.80;99.90
67974;DHT22;54756;51.140;6.952;2023-09-12T09:30:40;24.80;99.90
67974;DHT22;54756;51.140;6.952;2023-09-12T09:32:40;24.80;99.90
67974;DHT22;54756;51.140;6.952;2023-09-12T09:34:41;24.80;99.90
67974;DHT22;54756;51.140;6.952;2023-09-12T09:36:52;24.70;99.90
67974;DHT22;54756;51.140;6.952;2023-09-12T09:38:55;24.70;99.90
67974;DHT22;54756;51.140;6.952;2023-09-12T09:40:57;24.70;99.90
67974;DHT22;54756;51.140;6.952;2023-09-12T09:43:01;24.70;99.90
67974;DHT22;54756;51.140;6.952;2023-09-12T09:45:03;24.70;99.90
67974;DHT22;54756;51.140;6.952;2023-09-12T09:47:03;24.70;99.90
67974;DHT22;54756;51.140;6.952;2023-09-12T09:49:04;24.70;99.90
67974;DHT22;54756;51.140;6.952;2023-09-12T09:51:06;24.70;99.90
67974;DHT22;54756;51.140;6.952;2023-09-12T09:53:07;24.70;99.90
67974;DHT22;54756;51.140;6.952;2023-09-12T09:55:13;24.70;99.90
67974;DHT22;54756;51.140;6.952;2023-09-12T09:57:15;24.80;99.90
67974;DHT22;54756;51.140;6.952;2023-09-12T09:59:17;24.80;99.90
67974;DHT22;54756;51.140;6.952;2023-09-12T10:01:20;24.80;99.90
67974;DHT22;54756;51.140;6.952;2023-09-12T10:03:22;24.80;99.90
67974;DHT22;54756;51.140;6.952;2023-09-12T10:05:23;24.80;99.90
67974;DHT22;54756;51.140;6.952;2023-09-12T10:07:24;24.80;99.90
67974;DHT22;54756;51.140;6.952;2023-09-12T10:09:28;24.80;99.90
67974;DHT22;54756;51.140;6.952;2023-09-12T10:11:32;24.80;99.90
67974;DHT22;54756;51.140;6.952;2023-09-12T10:13:35;24.80;99.90
67974;DHT22;54756;51.140;6.952;2023-09-12T10:15:38;24.80;99.90
67974;DHT22;54756;51.140;6.952;2023-09-12T10:17:42;24.80;99.90
67974;DHT22;54756;51.140;6.952;2023-09-12T10:19:54;24.90;99.90
67974;DHT22;54756;51.140;6.952;2023-09-12T10:22:06;24.90;99.90
67974;DHT22;54756;51.140;6.952;2023-09-12T10:24:09;24.90;99.90
67974;DHT22;54756;51.140;6.952;2023-09-12T10:26:12;24.90;99.90
67974;DHT22;54756;51.140;6.952;2023-09-12T10:28:14;24.90;99.90
67974;DHT22;54756;51.140;6.952;2023-09-12T10:30:15;24.90;99.90
67974;DHT22;54756;51.140;6.952;2023-09-12T10:32:17;24.90;99.90
67974;DHT22;54756;51.140;6.952;2023-09-12T10:34:20;25.00;99.90
67974;DHT22;54756;51.140;6.952;2023-09-12T10:36:22;25.00;99.90
67974;DHT22;54756;51.140;6.952;2023-09-12T10:38:28;25.00;99.90
67974;DHT22;54756;51.140;6.952;2023-09-12T10:40:31;25.10;99.90
67974;DHT22;54756;51.140;6.952;2023-09-12T10:42:32;25.10;99.90
67974;DHT22;54756;51.140;6.952;2023-09-12T10:44:33;25.10;99.90
67974;DHT22;54756;51.140;6.952;2023-09-12T10:46:39;25.10;99.90
67974;DHT22;54756;51.140;6.952;2023-09-12T10:48:40;25.10;99.90
67974;DHT22;54756;51.140;6.952;2023-09-12T10:50:41;25.10;99.90
67974;DHT22;54756;51.140;6.952;2023-09-12T10:52:42;25.20;99.90
67974;DHT22;54756;51.140;6.952;2023-09-12T10:54:43;25.20;99.90
67974;DHT22;54756;51.140;6.952;2023-09-12T10:56:44;25.20;99.90
67974;DHT22;54756;51.140;6.952;2023-09-12T11:01:23;25.20;99.90
67974;DHT22;54756;51.140;6.952;2023-09-12T11:09:36;25.40;99.90
67974;DHT22;54756;51.140;6.952;2023-09-12T11:11:38;25.40;99.90
67974;DHT22;54756;51.140;6.952;2023-09-12T11:13:39;25.50;99.90
67974;DHT22;54756;51.140;6.952;2023-09-12T11:16:12;25.50;99.90
67974;DHT22;54756;51.140;6.952;2023-09-12T11:18:13;25.50;99.90
67974;DHT22;54756;51.140;6.952;2023-09-12T11:20:16;25.50;99.90
67974;DHT22;54756;51.140;6.952;2023-09-12T11:22:30;25.50;99.90
67974;DHT22;54756;51.140;6.952;2023-09-12T11:24:43;25.60;99.90
67974;DHT22;54756;51.140;6.952;2023-09-12T11:27:02;25.60;99.90
67974;DHT22;54756;51.140;6.952;2023-09-12T11:29:12;25.70;99.90
67974;DHT22;54756;51.140;6.952;2023-09-12T11:31:27;25.80;99.90
67974;DHT22;54756;51.140;6.952;2023-09-12T11:33:28;25.80;99.90
67974;DHT22;54756;51.140;6.952;2023-09-12T11:35:29;25.80;99.90
67974;DHT22;54756;51.140;6.952;2023-09-12T11:37:29;25.80;99.90
67974;DHT22;54756;51.140;6.952;2023-09-12T11:39:33;25.80;99.90
67974;DHT22;54756;51.140;6.952;2023-09-12T11:41:39;25.80;99.90
67974;DHT22;54756;51.140;6.952;2023-09-12T11:43:40;25.80;99.90
67974;DHT22;54756;51.140;6.952;2023-09-12T11:45:43;25.80;99.90
67974;DHT22;54756;51.140;6.952;2023-09-12T11:47:45;25.80;99.90
67974;DHT22;54756;51.140;6.952;2023-09-12T11:49:46;25.80;99.90
67974;DHT22;54756;51.140;6.952;2023-09-12T11:51:50;25.80;99.90
67974;DHT22;54756;51.140;6.952;2023-09-12T11:53:51;25.80;99.90
67974;DHT22;54756;51.140;6.952;2023-09-12T11:56:02;25.80;99.90
67974;DHT22;54756;51.140;6.952;2023-09-12T11:58:03;25.80;99.90
67974;DHT22;54756;51.140;6.952;2023-09-12T12:00:05;25.80;99.90
67974;DHT22;54756;51.140;6.952;2023-09-12T12:02:09;25.80;99.90
67974;DHT22;54756;51.140;6.952;2023-09-12T12:04:10;25.80;99.90
67974;DHT22;54756;51.140;6.952;2023-09-12T12:06:10;25.90;99.90
67974;DHT22;54756;51.140;6.952;2023-09-12T12:08:11;25.80;99.90
67974;DHT22;54756;51.140;6.952;2023-09-12T12:10:13;25.80;99.90
67974;DHT22;54756;51.140;6.952;2023-09-12T12:12:14;25.80;99.90
67974;DHT22;54756;51.140;6.952;2023-09-12T12:14:17;25.80;99.90
67974;DHT22;54756;51.140;6.952;2023-09-12T12:16:17;25.80;99.90
67974;DHT22;54756;51.140;6.952;2023-09-12T12:18:18;25.80;99.90
67974;DHT22;54756;51.140;6.952;2023-09-12T12:20:19;25.80;99.90
67974;DHT22;54756;51.140;6.952;2023-09-12T12:22:19;25.80;99.90
67974;DHT22;54756;51.140;6.952;2023-09-12T12:24:20;25.80;99.90
67974;DHT22;54756;51.140;6.952;2023-09-12T12:26:20;25.90;99.90
67974;DHT22;54756;51.140;6.952;2023-09-12T12:28:21;25.90;99.90
67974;DHT22;54756;51.140;6.952;2023-09-12T12:30:22;26.00;99.90
67974;DHT22;54756;51.140;6.952;2023-09-12T12:32:22;26.00;99.90
67974;DHT22;54756;51.140;6.952;2023-09-12T12:34:23;26.00;99.90
67974;DHT22;54756;51.140;6.952;2023-09-12T12:36:24;26.10;99.90
67974;DHT22;54756;51.140;6.952;2023-09-12T12:38:24;26.10;99.90
67974;DHT22;54756;51.140;6.952;2023-09-12T12:40:25;26.20;99.90
67974;DHT22;54756;51.140;6.952;2023-09-12T12:42:33;26.30;99.90
67974;DHT22;54756;51.140;6.952;2023-09-12T12:44:33;26.40;99.90
67974;DHT22;54756;51.140;6.952;2023-09-12T12:46:48;26.50;99.90
67974;DHT22;54756;51.140;6.952;2023-09-12T12:48:48;26.60;99.90
67974;DHT22;54756;51.140;6.952;2023-09-12T12:50:49;26.60;99.90
67974;DHT22;54756;51.140;6.952;2023-09-12T12:52:50;26.70;99.90
67974;DHT22;54756;51.140;6.952;2023-09-12T12:54:51;26.70;99.90
67974;DHT22;54756;51.140;6.952;2023-09-12T12:56:54;26.80;99.90
67974;DHT22;54756;51.140;6.952;2023-09-12T12:58:56;26.90;99.90
67974;DHT22;54756;51.140;6.952;2023-09-12T13:00:58;27.10;99.90
67974;DHT22;54756;51.140;6.952;2023-09-12T13:02:59;27.20;99.90